Time;durP1;ratioP1;P1;durP2;ratioP2;P2;SDS_P1;SDS_P2;PMS_P1;PMS_P2;Temp;Humidity;BMP_temperature;BMP_pressure;BME280_temperature;BME280_humidity;BME280_pressure;Samples;Min_cycle;Max_cycle;Signal;HPM_P1;HPM_P2
2023/06/06 00:01:13;;;;;;;;;10.25;6.75;;;;;;;;4939721;28;45585;-75
2023/06/06 00:03:38;;;;;;;;;5.25;5.00;;;;;;;;4950486;28;45801;-75
2023/06/06 00:06:04;;;;;;;;;4.00;3.00;;;;;;;;4950274;28;45396;-75
2023/06/06 00:08:29;;;;;;;;;6.25;6.00;;;;;;;;4952093;28;45441;-75
2023/06/06 00:10:55;;;;;;;;;8.50;5.75;;;;;;;;4941028;28;46148;-75
2023/06/06 00:13:20;;;;;;;;;4.50;4.50;;;;;;;;4949828;28;45484;-74
2023/06/06 00:15:46;;;;;;;;;3.75;3.00;;;;;;;;4945652;28;45440;-76
2023/06/06 00:18:15;;;;;;;;;6.25;4.25;;;;;;;;4942240;28;46000;-75
2023/06/06 00:20:40;;;;;;;;;5.00;3.75;;;;;;;;4939059;28;47110;-75
2023/06/06 00:23:06;;;;;;;;;7.00;4.00;;;;;;;;4951296;28;45415;-75
2023/06/06 00:25:31;;;;;;;;;7.75;5.50;;;;;;;;4942862;28;45630;-75
2023/06/06 00:27:56;;;;;;;;;7.25;4.50;;;;;;;;4945568;28;45566;-75
2023/06/06 00:30:22;;;;;;;;;8.50;5.75;;;;;;;;4949145;28;46298;-75
2023/06/06 00:32:47;;;;;;;;;6.25;5.50;;;;;;;;4939681;28;45414;-75
2023/06/06 00:35:12;;;;;;;;;5.50;4.50;;;;;;;;4951209;28;45505;-75
2023/06/06 00:37:37;;;;;;;;;4.75;4.75;;;;;;;;4940435;28;45560;-74
2023/06/06 00:40:04;;;;;;;;;7.50;7.50;;;;;;;;4947382;28;46397;-74
2023/06/06 00:42:29;;;;;;;;;7.25;5.50;;;;;;;;4950223;28;45686;-75
2023/06/06 00:44:55;;;;;;;;;5.00;5.00;;;;;;;;4939187;28;45554;-75
2023/06/06 00:47:20;;;;;;;;;8.25;7.00;;;;;;;;4949575;28;45541;-75
2023/06/06 00:49:46;;;;;;;;;6.25;5.25;;;;;;;;4945333;28;45437;-74
2023/06/06 00:52:11;;;;;;;;;6.00;5.50;;;;;;;;4942848;28;45444;-75
2023/06/06 00:54:37;;;;;;;;;6.50;4.00;;;;;;;;4952019;28;45514;-75
2023/06/06 00:57:03;;;;;;;;;5.25;5.25;;;;;;;;4939516;28;45469;-75
2023/06/06 00:59:28;;;;;;;;;5.50;5.50;;;;;;;;4947878;28;47172;-75
2023/06/06 01:01:53;;;;;;;;;5.75;3.75;;;;;;;;4946602;28;45469;-75
2023/06/06 01:04:19;;;;;;;;;4.75;3.25;;;;;;;;4941991;28;45489;-75
2023/06/06 01:06:45;;;;;;;;;3.50;3.50;;;;;;;;4951974;28;45469;-75
2023/06/06 01:09:12;;;;;;;;;2.75;2.75;;;;;;;;4940335;28;46287;-74
2023/06/06 01:11:37;;;;;;;;;4.00;2.75;;;;;;;;4949396;28;45839;-74
2023/06/06 01:14:03;;;;;;;;;6.50;5.25;;;;;;;;4943661;28;45425;-74
2023/06/06 01:16:30;;;;;;;;;5.00;5.00;;;;;;;;4951190;28;45643;-74
2023/06/06 01:18:56;;;;;;;;;4.50;4.50;;;;;;;;4939017;28;45418;-74
2023/06/06 01:21:21;;;;;;;;;4.50;4.50;;;;;;;;4948938;28;45454;-74
2023/06/06 01:23:47;;;;;;;;;5.25;5.25;;;;;;;;4944820;28;45358;-74
2023/06/06 01:26:12;;;;;;;;;4.25;4.25;;;;;;;;4951227;28;45536;-74
2023/06/06 01:28:37;;;;;;;;;8.00;6.50;;;;;;;;4938845;28;47188;-75
2023/06/06 01:31:03;;;;;;;;;7.75;6.00;;;;;;;;4951357;28;45330;-75
2023/06/06 01:33:35;;;;;;;;;7.75;3.75;;;;;;;;4940967;28;45430;-75
2023/06/06 01:36:12;;;;;;;;;6.25;5.50;;;;;;;;4952267;28;45507;-74
2023/06/06 01:38:45;;;;;;;;;6.50;5.00;;;;;;;;4952544;28;46103;-74
2023/06/06 01:41:13;;;;;;;;;6.50;6.25;;;;;;;;4940052;28;45385;-74
2023/06/06 01:43:39;;;;;;;;;7.75;7.75;;;;;;;;4954921;28;45549;-74
2023/06/06 01:46:06;;;;;;;;;5.50;5.50;;;;;;;;4943573;28;45377;-74
2023/06/06 01:48:32;;;;;;;;;6.75;5.25;;;;;;;;4950958;28;46209;-74
2023/06/06 01:50:57;;;;;;;;;9.00;5.50;;;;;;;;4938809;28;45440;-74
2023/06/06 01:53:22;;;;;;;;;8.00;7.75;;;;;;;;4952069;28;45383;-75
2023/06/06 01:55:48;;;;;;;;;7.50;5.25;;;;;;;;4948521;28;45697;-75
2023/06/06 01:58:15;;;;;;;;;10.75;8.50;;;;;;;;4954553;28;46685;-74
2023/06/06 02:00:40;;;;;;;;;6.00;6.00;;;;;;;;4942082;28;45416;-74
2023/06/06 02:03:06;;;;;;;;;6.75;5.50;;;;;;;;4953894;28;45475;-74
2023/06/06 02:05:31;;;;;;;;;10.50;8.25;;;;;;;;4945784;28;45449;-75
2023/06/06 02:07:56;;;;;;;;;12.25;5.75;;;;;;;;4947575;28;46161;-75
2023/06/06 02:10:21;;;;;;;;;8.50;7.75;;;;;;;;4949891;28;45381;-75
2023/06/06 02:12:47;;;;;;;;;10.75;8.75;;;;;;;;4954061;28;45454;-75
2023/06/06 02:15:13;;;;;;;;;6.75;6.75;;;;;;;;4958575;28;45363;-75
2023/06/06 02:17:40;;;;;;;;;8.25;8.25;;;;;;;;4958556;28;46461;-75
2023/06/06 02:20:07;;;;;;;;;4.50;4.50;;;;;;;;4958512;28;45549;-75
2023/06/06 02:22:32;;;;;;;;;5.00;4.50;;;;;;;;4958056;28;45406;-75
2023/06/06 02:24:57;;;;;;;;;8.75;8.50;;;;;;;;4957061;28;45477;-76
2023/06/06 02:27:23;;;;;;;;;8.00;6.00;;;;;;;;4957616;28;46086;-75
2023/06/06 02:29:48;;;;;;;;;10.50;9.75;;;;;;;;4957171;28;45452;-75
2023/06/06 02:32:14;;;;;;;;;8.00;6.00;;;;;;;;4957615;28;45288;-75
2023/06/06 02:34:39;;;;;;;;;7.75;6.25;;;;;;;;4957491;28;45486;-75
2023/06/06 02:37:07;;;;;;;;;6.25;6.25;;;;;;;;4957167;28;45757;-75
2023/06/06 02:39:35;;;;;;;;;7.25;6.50;;;;;;;;4957125;28;46071;-74
2023/06/06 02:42:01;;;;;;;;;6.25;6.25;;;;;;;;4956861;28;45613;-75
2023/06/06 02:44:26;;;;;;;;;12.00;9.00;;;;;;;;4955833;28;45423;-75
2023/06/06 02:46:52;;;;;;;;;12.00;10.75;;;;;;;;4956585;28;46088;-75
2023/06/06 02:49:17;;;;;;;;;8.50;7.75;;;;;;;;4955231;28;45513;-75
2023/06/06 02:51:42;;;;;;;;;9.25;7.25;;;;;;;;4956305;28;45394;-76
2023/06/06 02:54:07;;;;;;;;;11.00;8.00;;;;;;;;4956424;28;45368;-75
2023/06/06 02:56:33;;;;;;;;;10.50;8.00;;;;;;;;4956787;28;46166;-67
2023/06/06 02:58:58;;;;;;;;;7.75;7.75;;;;;;;;4956376;28;45494;-67
2023/06/06 03:01:25;;;;;;;;;11.25;10.00;;;;;;;;4956039;28;45464;-67
2023/06/06 03:03:50;;;;;;;;;10.25;7.75;;;;;;;;4955975;28;45345;-67
2023/06/06 03:06:15;;;;;;;;;9.00;8.00;;;;;;;;4956455;28;45525;-67
2023/06/06 03:08:41;;;;;;;;;11.00;10.75;;;;;;;;4956120;28;45373;-67
2023/06/06 03:11:06;;;;;;;;;12.00;11.75;;;;;;;;4947985;28;45319;-66
2023/06/06 03:13:31;;;;;;;;;13.50;9.75;;;;;;;;4942109;28;45490;-66
2023/06/06 03:15:56;;;;;;;;;13.75;9.50;;;;;;;;4956441;28;46532;-66
2023/06/06 03:18:23;;;;;;;;;10.50;9.50;;;;;;;;4956396;28;45416;-66
2023/06/06 03:20:51;;;;;;;;;12.25;11.25;;;;;;;;4956452;28;45363;-66
2023/06/06 03:23:17;;;;;;;;;14.00;13.00;;;;;;;;4908483;28;1399147;-66
2023/06/06 03:25:43;;;;;;;;;13.75;10.75;;;;;;;;4957486;28;47506;-66
2023/06/06 03:28:08;;;;;;;;;13.50;11.00;;;;;;;;4957388;28;45309;-66
2023/06/06 03:30:34;;;;;;;;;9.00;9.00;;;;;;;;4957460;28;45397;-66
2023/06/06 03:33:00;;;;;;;;;9.50;9.25;;;;;;;;4957380;28;45555;-66
2023/06/06 03:35:26;;;;;;;;;12.50;11.00;;;;;;;;4957071;28;46438;-66
2023/06/06 03:37:55;;;;;;;;;13.50;9.75;;;;;;;;4957146;28;45485;-66
2023/06/06 03:40:20;;;;;;;;;11.75;6.75;;;;;;;;4957502;28;45371;-66
2023/06/06 03:42:45;;;;;;;;;13.50;11.50;;;;;;;;4957189;28;45540;-65
2023/06/06 03:45:11;;;;;;;;;13.00;11.00;;;;;;;;4956572;28;46322;-65
2023/06/06 03:47:36;;;;;;;;;13.00;11.50;;;;;;;;4957055;28;45453;-65
2023/06/06 03:50:01;;;;;;;;;12.50;12.00;;;;;;;;4955943;28;45377;-66
2023/06/06 03:52:27;;;;;;;;;11.00;10.25;;;;;;;;4956932;28;45526;-65
2023/06/06 03:54:52;;;;;;;;;18.75;12.00;;;;;;;;4957093;28;47158;-65
2023/06/06 03:57:18;;;;;;;;;13.50;10.00;;;;;;;;4955837;28;45437;-66
2023/06/06 03:59:44;;;;;;;;;20.50;15.50;;;;;;;;4957195;28;45494;-65
2023/06/06 04:02:09;;;;;;;;;15.00;13.50;;;;;;;;4956928;28;45433;-66
2023/06/06 04:04:36;;;;;;;;;15.50;14.25;;;;;;;;4955440;28;47471;-66
2023/06/06 04:07:03;;;;;;;;;13.75;11.00;;;;;;;;4956248;28;45432;-66
2023/06/06 04:09:28;;;;;;;;;16.75;11.00;;;;;;;;4957006;28;45395;-66
2023/06/06 04:11:53;;;;;;;;;13.75;11.00;;;;;;;;4942011;28;45354;-65
2023/06/06 04:14:18;;;;;;;;;16.25;13.25;;;;;;;;4936798;28;47026;-65
2023/06/06 04:16:44;;;;;;;;;16.75;15.50;;;;;;;;4935976;28;45384;-65
2023/06/06 04:19:10;;;;;;;;;17.50;13.75;;;;;;;;4937237;28;45339;-65
2023/06/06 04:21:36;;;;;;;;;17.00;15.00;;;;;;;;4937258;28;45315;-65
2023/06/06 04:24:01;;;;;;;;;15.00;12.25;;;;;;;;4936854;28;47049;-65
2023/06/06 04:26:31;;;;;;;;;17.25;15.50;;;;;;;;4937453;28;45290;-65
2023/06/06 04:28:58;;;;;;;;;18.00;15.50;;;;;;;;4936047;28;45409;-65
2023/06/06 04:31:25;;;;;;;;;20.75;14.00;;;;;;;;4937263;28;45503;-65
2023/06/06 04:33:53;;;;;;;;;16.75;15.75;;;;;;;;4942643;28;46077;-65
2023/06/06 04:36:27;;;;;;;;;20.00;15.25;;;;;;;;4956485;28;45448;-64
2023/06/06 04:39:00;;;;;;;;;19.25;17.25;;;;;;;;4956493;28;45428;-65
2023/06/06 04:41:25;;;;;;;;;22.75;19.75;;;;;;;;4954792;28;45469;-65
2023/06/06 04:43:51;;;;;;;;;19.50;16.50;;;;;;;;4956133;28;46233;-65
2023/06/06 04:46:23;;;;;;;;;18.00;15.25;;;;;;;;4956129;28;45567;-65
2023/06/06 04:48:52;;;;;;;;;23.50;18.50;;;;;;;;4956579;28;45448;-65
2023/06/06 04:51:17;;;;;;;;;25.25;20.00;;;;;;;;4955680;28;45589;-65
2023/06/06 04:53:44;;;;;;;;;25.00;22.50;;;;;;;;4954888;28;47037;-65
2023/06/06 04:56:11;;;;;;;;;18.00;17.25;;;;;;;;4945223;28;45494;-65
2023/06/06 04:58:36;;;;;;;;;18.75;18.00;;;;;;;;4948608;28;45436;-65
2023/06/06 05:01:02;;;;;;;;;19.00;17.75;;;;;;;;4956141;28;45341;-65
2023/06/06 05:03:27;;;;;;;;;24.00;19.00;;;;;;;;4954765;28;48240;-66
2023/06/06 05:05:53;;;;;;;;;21.00;16.50;;;;;;;;4955754;28;45412;-65
2023/06/06 05:08:19;;;;;;;;;22.75;20.25;;;;;;;;4956221;28;45431;-66
2023/06/06 05:10:44;;;;;;;;;19.50;18.75;;;;;;;;4950331;28;45551;-65
2023/06/06 05:13:09;;;;;;;;;28.50;26.25;;;;;;;;4936504;28;46382;-65
2023/06/06 05:15:35;;;;;;;;;26.00;21.25;;;;;;;;4936838;28;45331;-64
2023/06/06 05:18:00;;;;;;;;;25.50;22.00;;;;;;;;4936463;28;45381;-64
2023/06/06 05:20:25;;;;;;;;;26.25;20.00;;;;;;;;4936100;28;45330;-64
2023/06/06 05:22:50;;;;;;;;;12.75;11.00;;;;;;;;4949767;28;45576;-64
2023/06/06 05:25:16;;;;;;;;;20.00;16.75;;;;;;;;4955644;28;45461;-65
2023/06/06 05:27:41;;;;;;;;;27.50;24.50;;;;;;;;4958646;28;45352;-64
2023/06/06 05:30:06;;;;;;;;;24.75;23.25;;;;;;;;4959479;28;45389;-64
2023/06/06 05:32:32;;;;;;;;;24.00;18.75;;;;;;;;4958949;28;46093;-64
2023/06/06 05:34:57;;;;;;;;;23.00;22.75;;;;;;;;4958513;28;45529;-63
2023/06/06 05:37:22;;;;;;;;;19.75;19.00;;;;;;;;4959099;28;45353;-64
2023/06/06 05:39:47;;;;;;;;;23.50;19.25;;;;;;;;4957934;28;45584;-64
2023/06/06 05:42:13;;;;;;;;;24.50;22.50;;;;;;;;4958462;28;45595;-64
2023/06/06 05:44:38;;;;;;;;;21.75;19.25;;;;;;;;4958750;28;45354;-64
2023/06/06 05:47:03;;;;;;;;;24.00;20.25;;;;;;;;4958818;28;45512;-65
2023/06/06 05:49:29;;;;;;;;;28.25;23.75;;;;;;;;4958950;28;45362;-64
2023/06/06 05:51:54;;;;;;;;;19.75;19.75;;;;;;;;4958668;28;45533;-64
2023/06/06 05:54:19;;;;;;;;;24.00;23.00;;;;;;;;4957621;28;46205;-64
2023/06/06 05:56:44;;;;;;;;;24.75;23.00;;;;;;;;4959093;28;45425;-65
2023/06/06 05:59:09;;;;;;;;;21.75;21.00;;;;;;;;4958460;28;45310;-64
2023/06/06 06:01:37;;;;;;;;;24.25;21.50;;;;;;;;4957558;28;45403;-64
2023/06/06 06:04:02;;;;;;;;;25.50;22.00;;;;;;;;4958245;28;45334;-65
2023/06/06 06:06:27;;;;;;;;;25.50;22.75;;;;;;;;4958531;28;45424;-65
2023/06/06 06:08:54;;;;;;;;;22.00;20.75;;;;;;;;4959033;28;45383;-65
2023/06/06 06:11:19;;;;;;;;;24.25;24.25;;;;;;;;4948331;28;45327;-64
2023/06/06 06:13:45;;;;;;;;;21.25;18.75;;;;;;;;4944001;28;45335;-65
2023/06/06 06:16:10;;;;;;;;;20.00;18.50;;;;;;;;4958268;28;45402;-64
2023/06/06 06:18:35;;;;;;;;;22.75;16.75;;;;;;;;4957997;28;45278;-65
2023/06/06 06:21:01;;;;;;;;;18.25;14.75;;;;;;;;4958500;28;45408;-64
2023/06/06 06:23:26;;;;;;;;;25.00;23.00;;;;;;;;4957967;28;45545;-64
2023/06/06 06:25:52;;;;;;;;;22.50;20.50;;;;;;;;4958046;28;45382;-65
2023/06/06 06:28:17;;;;;;;;;27.25;22.25;;;;;;;;4958610;28;45306;-65
2023/06/06 06:30:43;;;;;;;;;30.50;21.75;;;;;;;;4957869;28;46328;-66
2023/06/06 06:33:08;;;;;;;;;23.00;22.00;;;;;;;;4957930;28;45550;-66
2023/06/06 06:35:33;;;;;;;;;24.75;19.50;;;;;;;;4958398;28;45341;-67
2023/06/06 06:37:58;;;;;;;;;25.75;21.00;;;;;;;;4958027;28;45429;-67
2023/06/06 06:40:24;;;;;;;;;25.25;23.50;;;;;;;;4956983;28;48321;-67
2023/06/06 06:42:49;;;;;;;;;24.25;24.25;;;;;;;;4956777;28;45713;-67
2023/06/06 06:45:17;;;;;;;;;24.00;22.75;;;;;;;;4958238;28;45317;-67
2023/06/06 06:47:43;;;;;;;;;28.50;25.50;;;;;;;;4957794;28;45446;-66
2023/06/06 06:50:10;;;;;;;;;27.00;24.75;;;;;;;;4958012;28;45653;-66
2023/06/06 06:52:35;;;;;;;;;27.75;22.50;;;;;;;;4957784;28;45360;-67
2023/06/06 06:55:01;;;;;;;;;22.75;19.50;;;;;;;;4947183;28;46065;-67
2023/06/06 06:57:28;;;;;;;;;25.50;21.75;;;;;;;;4933561;28;45483;-67
2023/06/06 06:59:56;;;;;;;;;27.25;27.25;;;;;;;;4935687;28;46365;-67
2023/06/06 07:02:26;;;;;;;;;23.00;22.00;;;;;;;;4945954;28;45500;-67
2023/06/06 07:04:52;;;;;;;;;21.75;20.25;;;;;;;;4943663;28;45356;-67
2023/06/06 07:07:17;;;;;;;;;33.25;27.75;;;;;;;;4924605;28;45544;-66
2023/06/06 07:09:45;;;;;;;;;30.25;27.00;;;;;;;;4934211;28;46316;-66
2023/06/06 07:12:11;;;;;;;;;26.00;25.00;;;;;;;;4952122;28;45527;-67
2023/06/06 07:14:37;;;;;;;;;29.50;24.00;;;;;;;;4957074;28;45525;-67
2023/06/06 07:17:03;;;;;;;;;25.00;20.00;;;;;;;;4954280;28;45500;-66
2023/06/06 07:19:28;;;;;;;;;33.00;28.50;;;;;;;;4956052;28;47648;-66
2023/06/06 07:21:54;;;;;;;;;23.75;22.50;;;;;;;;4956014;28;45853;-66
2023/06/06 07:24:20;;;;;;;;;25.75;22.75;;;;;;;;4957404;28;45440;-67
2023/06/06 07:26:45;;;;;;;;;24.25;20.25;;;;;;;;4956352;28;45480;-67
2023/06/06 07:29:11;;;;;;;;;27.75;27.00;;;;;;;;4956827;28;45412;-66
2023/06/06 07:31:36;;;;;;;;;27.00;26.25;;;;;;;;4957504;28;45586;-66
2023/06/06 07:34:02;;;;;;;;;25.00;20.00;;;;;;;;4957423;28;45369;-66
2023/06/06 07:36:27;;;;;;;;;22.75;21.50;;;;;;;;4957171;28;45681;-66
2023/06/06 07:38:53;;;;;;;;;28.50;24.25;;;;;;;;4957030;28;46239;-66
2023/06/06 07:41:19;;;;;;;;;28.50;23.50;;;;;;;;4955938;28;45437;-66
2023/06/06 07:43:45;;;;;;;;;30.25;27.25;;;;;;;;4956735;28;45433;-66
2023/06/06 07:46:10;;;;;;;;;29.25;25.75;;;;;;;;4955572;28;45518;-66
2023/06/06 07:48:35;;;;;;;;;23.75;20.50;;;;;;;;4956359;28;46399;-66
2023/06/06 07:51:00;;;;;;;;;23.75;20.25;;;;;;;;4956394;28;45357;-66
2023/06/06 07:53:26;;;;;;;;;29.75;27.75;;;;;;;;4957362;28;45306;-66
2023/06/06 07:55:51;;;;;;;;;24.25;22.00;;;;;;;;4956914;28;45416;-66
2023/06/06 07:58:22;;;;;;;;;20.25;19.00;;;;;;;;4943353;28;47203;-66
2023/06/06 08:00:49;;;;;;;;;23.75;23.00;;;;;;;;4950137;28;45397;-66
2023/06/06 08:03:14;;;;;;;;;27.25;26.25;;;;;;;;4956322;28;45547;-66
2023/06/06 08:05:40;;;;;;;;;29.25;24.50;;;;;;;;4957012;28;45445;-66
2023/06/06 08:08:06;;;;;;;;;18.75;17.50;;;;;;;;4956546;28;45657;-66
2023/06/06 08:10:31;;;;;;;;;22.25;21.00;;;;;;;;4952957;28;45407;-66
2023/06/06 08:12:57;;;;;;;;;27.00;22.00;;;;;;;;4937660;28;45434;-66
2023/06/06 08:15:22;;;;;;;;;23.75;22.50;;;;;;;;4955976;28;45452;-66
2023/06/06 08:17:48;;;;;;;;;24.25;21.25;;;;;;;;4956065;28;46332;-66
2023/06/06 08:20:13;;;;;;;;;27.75;26.00;;;;;;;;4956714;28;45431;-67
2023/06/06 08:22:47;;;;;;;;;21.25;20.00;;;;;;;;4956584;28;45450;-67
2023/06/06 08:25:12;;;;;;;;;24.75;21.00;;;;;;;;4956190;28;45352;-66
2023/06/06 08:27:38;;;;;;;;;26.75;25.00;;;;;;;;4956188;28;45366;-66
2023/06/06 08:30:04;;;;;;;;;26.25;25.00;;;;;;;;4956536;28;45518;-66
2023/06/06 08:32:30;;;;;;;;;23.75;22.75;;;;;;;;4956557;28;45371;-66
2023/06/06 08:34:55;;;;;;;;;31.25;22.75;;;;;;;;4956344;28;45261;-66
2023/06/06 08:37:21;;;;;;;;;29.25;26.25;;;;;;;;4955169;28;48798;-67
2023/06/06 08:39:47;;;;;;;;;24.75;22.50;;;;;;;;4956181;28;45349;-67
2023/06/06 08:42:15;;;;;;;;;24.25;20.50;;;;;;;;4955928;28;45227;-67
2023/06/06 08:44:41;;;;;;;;;24.50;20.75;;;;;;;;4956341;28;45851;-66
2023/06/06 08:47:08;;;;;;;;;26.50;22.00;;;;;;;;4956081;28;47363;-66
2023/06/06 08:49:34;;;;;;;;;25.00;22.50;;;;;;;;4955922;28;45505;-66
2023/06/06 08:52:01;;;;;;;;;20.50;18.75;;;;;;;;4954974;28;45465;-66
2023/06/06 08:54:27;;;;;;;;;20.00;19.75;;;;;;;;4956415;28;45353;-66
2023/06/06 08:56:54;;;;;;;;;19.25;18.25;;;;;;;;4955723;28;46206;-66
2023/06/06 08:59:20;;;;;;;;;29.00;26.25;;;;;;;;4955893;28;45421;-66
2023/06/06 09:01:47;;;;;;;;;21.50;16.25;;;;;;;;4956179;28;45389;-66
2023/06/06 09:04:15;;;;;;;;;29.25;27.00;;;;;;;;4955627;28;45542;-66
2023/06/06 09:06:44;;;;;;;;;22.75;21.50;;;;;;;;4955788;28;45344;-66
2023/06/06 09:09:11;;;;;;;;;25.00;21.25;;;;;;;;4954349;28;45351;-66
2023/06/06 09:11:37;;;;;;;;;21.25;21.00;;;;;;;;4943199;28;45477;-66
2023/06/06 09:14:04;;;;;;;;;21.25;18.50;;;;;;;;4935215;28;45555;-66
2023/06/06 09:16:30;;;;;;;;;21.25;21.00;;;;;;;;4936433;28;45720;-66
2023/06/06 09:19:01;;;;;;;;;29.50;22.00;;;;;;;;4935242;28;45401;-66
2023/06/06 09:21:33;;;;;;;;;23.75;19.50;;;;;;;;4936802;28;45422;-66
2023/06/06 09:23:58;;;;;;;;;31.25;25.00;;;;;;;;4934893;28;45435;-66
2023/06/06 09:26:23;;;;;;;;;24.75;19.00;;;;;;;;4936044;28;45323;-67
2023/06/06 09:28:49;;;;;;;;;24.25;22.50;;;;;;;;4935094;28;45476;-67
2023/06/06 09:31:25;;;;;;;;;21.00;18.25;;;;;;;;4953931;28;45354;-67
2023/06/06 09:33:51;;;;;;;;;20.75;19.25;;;;;;;;4955874;28;45368;-68
2023/06/06 09:36:19;;;;;;;;;20.50;19.50;;;;;;;;4955312;28;46348;-67
2023/06/06 09:38:44;;;;;;;;;17.75;17.00;;;;;;;;4955392;28;45477;-67
2023/06/06 09:41:10;;;;;;;;;25.50;19.25;;;;;;;;4954996;28;45215;-67
2023/06/06 09:43:37;;;;;;;;;17.25;16.25;;;;;;;;4955689;28;45337;-67
2023/06/06 09:46:05;;;;;;;;;17.75;15.75;;;;;;;;4955139;28;45281;-67
2023/06/06 09:48:30;;;;;;;;;19.50;17.00;;;;;;;;4955281;28;45568;-67
2023/06/06 09:50:56;;;;;;;;;16.25;16.25;;;;;;;;4955357;28;45452;-67
2023/06/06 09:53:28;;;;;;;;;18.25;14.50;;;;;;;;4955502;28;45552;-67
2023/06/06 09:55:56;;;;;;;;;16.00;16.00;;;;;;;;4953629;28;46914;-67
2023/06/06 09:58:22;;;;;;;;;19.75;16.00;;;;;;;;4955385;28;45451;-67
2023/06/06 10:00:48;;;;;;;;;20.00;19.50;;;;;;;;4955498;28;45381;-68
2023/06/06 10:03:20;;;;;;;;;16.25;13.00;;;;;;;;4954091;28;45459;-67
2023/06/06 10:05:46;;;;;;;;;15.00;13.25;;;;;;;;4955092;28;47595;-67
2023/06/06 10:08:12;;;;;;;;;13.00;13.00;;;;;;;;4955071;28;45606;-67
2023/06/06 10:10:38;;;;;;;;;17.50;13.75;;;;;;;;4950607;28;46075;-67
2023/06/06 10:13:04;;;;;;;;;10.75;10.75;;;;;;;;4937330;28;45414;-69
2023/06/06 10:15:29;;;;;;;;;16.75;15.75;;;;;;;;4963943;28;45425;-69
2023/06/06 10:17:54;;;;;;;;;17.25;14.25;;;;;;;;4978069;28;45434;-67
2023/06/06 10:20:22;;;;;;;;;17.25;13.50;;;;;;;;4978468;28;45377;-67
2023/06/06 10:22:47;;;;;;;;;16.50;13.75;;;;;;;;4977143;28;45377;-67
2023/06/06 10:25:13;;;;;;;;;17.00;17.00;;;;;;;;4977544;28;45930;-67
2023/06/06 10:27:59;;;;;;;;;21.75;18.75;;;;;;;;4977869;28;45428;-68
2023/06/06 10:30:30;;;;;;;;;16.75;15.00;;;;;;;;4960232;28;45546;-68
2023/06/06 10:33:01;;;;;;;;;16.75;14.25;;;;;;;;4942329;28;45342;-66
2023/06/06 10:35:26;;;;;;;;;14.50;14.50;;;;;;;;4938737;28;45460;-67
2023/06/06 10:38:05;;;;;;;;;19.75;17.25;;;;;;;;4938393;28;45527;-67
2023/06/06 10:40:49;;;;;;;;;17.75;15.50;;;;;;;;4938992;28;45338;-67
2023/06/06 10:43:17;;;;;;;;;17.75;16.00;;;;;;;;4956450;28;45327;-68
2023/06/06 10:45:43;;;;;;;;;14.25;14.25;;;;;;;;4951682;28;48385;-68
2023/06/06 10:48:09;;;;;;;;;24.25;18.25;;;;;;;;4938974;28;45330;-67
2023/06/06 10:50:34;;;;;;;;;17.00;13.50;;;;;;;;4942633;28;45582;-67
2023/06/06 10:53:05;;;;;;;;;16.00;13.25;;;;;;;;4957411;28;45345;-67
2023/06/06 10:55:30;;;;;;;;;16.25;15.75;;;;;;;;4957750;28;45504;-67
2023/06/06 10:58:06;;;;;;;;;15.00;13.25;;;;;;;;4957867;28;45489;-67
2023/06/06 11:00:32;;;;;;;;;14.50;13.25;;;;;;;;4957923;28;45312;-67
2023/06/06 11:03:03;;;;;;;;;15.50;13.75;;;;;;;;4956396;28;45418;-67
2023/06/06 11:05:29;;;;;;;;;16.75;14.00;;;;;;;;4957371;28;46362;-67
2023/06/06 11:07:57;;;;;;;;;16.75;15.75;;;;;;;;4957514;28;45461;-67
2023/06/06 11:10:23;;;;;;;;;15.25;14.25;;;;;;;;4953562;28;45366;-67
2023/06/06 11:12:49;;;;;;;;;18.00;16.75;;;;;;;;4936947;28;45650;-66
2023/06/06 11:15:25;;;;;;;;;16.00;15.00;;;;;;;;4952523;28;45515;-66
2023/06/06 11:17:58;;;;;;;;;13.25;13.25;;;;;;;;4955059;28;45465;-66
2023/06/06 11:20:25;;;;;;;;;15.50;14.25;;;;;;;;4956227;28;45618;-66
2023/06/06 11:23:03;;;;;;;;;12.00;11.00;;;;;;;;4955721;28;45571;-66
2023/06/06 11:25:35;;;;;;;;;16.00;12.00;;;;;;;;4952110;28;45745;-66
2023/06/06 11:28:01;;;;;;;;;11.25;11.25;;;;;;;;4948156;28;45470;-66
2023/06/06 11:30:30;;;;;;;;;17.00;14.00;;;;;;;;4935912;28;45473;-66
2023/06/06 11:32:55;;;;;;;;;15.75;12.00;;;;;;;;4951979;28;45553;-66
2023/06/06 11:35:21;;;;;;;;;18.00;15.00;;;;;;;;4955641;28;46726;-66
2023/06/06 11:37:46;;;;;;;;;11.00;11.00;;;;;;;;4955606;28;45609;-66
2023/06/06 11:40:12;;;;;;;;;16.00;14.50;;;;;;;;4956212;28;45490;-66
2023/06/06 11:42:42;;;;;;;;;13.75;11.75;;;;;;;;4956624;28;45462;-67
2023/06/06 11:45:19;;;;;;;;;14.75;11.50;;;;;;;;4957001;28;46073;-67
2023/06/06 11:47:44;;;;;;;;;14.00;12.00;;;;;;;;4957034;28;45373;-67
2023/06/06 11:50:10;;;;;;;;;12.50;11.00;;;;;;;;4955827;28;45319;-67
2023/06/06 11:52:42;;;;;;;;;14.00;11.75;;;;;;;;4957512;28;45439;-67
2023/06/06 11:55:07;;;;;;;;;11.50;11.50;;;;;;;;4955809;28;46320;-67
2023/06/06 11:57:36;;;;;;;;;14.00;14.00;;;;;;;;4957387;28;45445;-67
2023/06/06 12:00:09;;;;;;;;;14.25;11.75;;;;;;;;4956679;28;45448;-67
2023/06/06 12:02:34;;;;;;;;;13.50;12.50;;;;;;;;4956770;28;45199;-67
2023/06/06 12:05:00;;;;;;;;;11.25;11.00;;;;;;;;4956377;28;46024;-67
2023/06/06 12:07:25;;;;;;;;;15.50;11.50;;;;;;;;4957123;28;45243;-67
2023/06/06 12:09:55;;;;;;;;;11.50;11.50;;;;;;;;4956895;28;45349;-67
2023/06/06 12:12:20;;;;;;;;;11.25;9.50;;;;;;;;4938743;28;45755;-67
2023/06/06 12:14:54;;;;;;;;;11.75;11.75;;;;;;;;4944025;28;46325;-66
2023/06/06 12:17:23;;;;;;;;;13.50;12.00;;;;;;;;4956102;28;45638;-68
2023/06/06 12:19:52;;;;;;;;;13.25;12.00;;;;;;;;4956046;28;45457;-67
2023/06/06 12:22:26;;;;;;;;;12.25;11.25;;;;;;;;4956556;28;45303;-68
2023/06/06 12:24:52;;;;;;;;;11.75;11.75;;;;;;;;4954287;28;48162;-67
2023/06/06 12:27:25;;;;;;;;;9.25;6.75;;;;;;;;4955780;28;45540;-68
2023/06/06 12:29:54;;;;;;;;;12.00;10.00;;;;;;;;4956363;28;45446;-68
2023/06/06 12:32:25;;;;;;;;;13.50;13.25;;;;;;;;4956659;28;45412;-67
2023/06/06 12:35:05;;;;;;;;;16.00;13.25;;;;;;;;4955959;28;45333;-67
2023/06/06 12:37:43;;;;;;;;;12.00;12.00;;;;;;;;4956375;28;45389;-68
2023/06/06 12:40:12;;;;;;;;;15.00;13.25;;;;;;;;4956021;28;45449;-68
2023/06/06 12:42:38;;;;;;;;;15.50;13.25;;;;;;;;4956442;28;45278;-68
2023/06/06 12:45:04;;;;;;;;;11.50;11.50;;;;;;;;4955779;28;45653;-68
2023/06/06 12:47:29;;;;;;;;;11.50;11.00;;;;;;;;4955034;28;45476;-68
2023/06/06 12:49:54;;;;;;;;;13.75;9.75;;;;;;;;4955901;28;45437;-68
2023/06/06 12:52:20;;;;;;;;;10.75;10.50;;;;;;;;4956455;28;45357;-66
2023/06/06 12:54:45;;;;;;;;;13.50;11.25;;;;;;;;4955079;28;45641;-68
2023/06/06 12:57:11;;;;;;;;;12.25;10.50;;;;;;;;4956471;28;45823;-67
2023/06/06 12:59:41;;;;;;;;;11.25;10.25;;;;;;;;4955064;28;45387;-67
2023/06/06 13:02:07;;;;;;;;;14.00;10.25;;;;;;;;4955998;28;45644;-66
2023/06/06 13:04:33;;;;;;;;;13.75;11.00;;;;;;;;4955765;28;46448;-67
2023/06/06 13:06:58;;;;;;;;;9.25;8.25;;;;;;;;4956212;28;45318;-67
2023/06/06 13:09:24;;;;;;;;;9.00;9.00;;;;;;;;4956180;28;45388;-67
2023/06/06 13:11:49;;;;;;;;;11.00;10.00;;;;;;;;4942185;28;45382;-68
2023/06/06 13:14:14;;;;;;;;;8.75;7.75;;;;;;;;4940198;28;45689;-67
2023/06/06 13:16:41;;;;;;;;;9.25;9.25;;;;;;;;4956053;28;45404;-67
2023/06/06 13:19:06;;;;;;;;;11.00;9.00;;;;;;;;4956066;28;45417;-67
2023/06/06 13:21:31;;;;;;;;;10.50;10.50;;;;;;;;4956077;28;45456;-68
2023/06/06 13:23:57;;;;;;;;;8.00;8.00;;;;;;;;4954405;28;45569;-68
2023/06/06 13:26:22;;;;;;;;;8.00;6.00;;;;;;;;4955678;28;45358;-67
2023/06/06 13:28:48;;;;;;;;;8.50;7.50;;;;;;;;4954724;28;45429;-67
2023/06/06 13:31:13;;;;;;;;;7.50;7.50;;;;;;;;4955887;28;45393;-68
2023/06/06 13:33:38;;;;;;;;;9.50;8.00;;;;;;;;4955817;28;46222;-67
2023/06/06 13:36:03;;;;;;;;;8.00;8.00;;;;;;;;4956074;28;45382;-68
2023/06/06 13:38:29;;;;;;;;;9.25;8.75;;;;;;;;4955805;28;45361;-68
2023/06/06 13:40:54;;;;;;;;;9.75;9.00;;;;;;;;4954940;28;45373;-68
2023/06/06 13:43:19;;;;;;;;;6.00;6.00;;;;;;;;4953755;28;45420;-67
2023/06/06 13:45:44;;;;;;;;;6.00;6.00;;;;;;;;4955649;28;45315;-67
2023/06/06 13:48:10;;;;;;;;;7.00;6.00;;;;;;;;4957290;28;45267;-67
2023/06/06 13:50:35;;;;;;;;;7.75;7.00;;;;;;;;4959077;28;45328;-68
2023/06/06 13:53:00;;;;;;;;;5.00;5.00;;;;;;;;4959056;28;45321;-67
2023/06/06 13:55:25;;;;;;;;;8.75;7.50;;;;;;;;4959066;28;45200;-67
2023/06/06 13:57:52;;;;;;;;;7.25;7.25;;;;;;;;4959268;28;45330;-67
2023/06/06 14:00:19;;;;;;;;;8.25;7.00;;;;;;;;4959071;28;45411;-67
2023/06/06 14:02:44;;;;;;;;;6.25;6.25;;;;;;;;4958302;28;45599;-66
2023/06/06 14:05:10;;;;;;;;;9.00;6.00;;;;;;;;4958612;28;45519;-66
2023/06/06 14:07:36;;;;;;;;;7.25;7.25;;;;;;;;4959231;28;45349;-66
2023/06/06 14:10:01;;;;;;;;;8.00;7.50;;;;;;;;4958790;28;45493;-67
2023/06/06 14:12:26;;;;;;;;;5.75;5.75;;;;;;;;4939629;28;45413;-67
2023/06/06 14:14:51;;;;;;;;;4.75;4.75;;;;;;;;4947728;28;45386;-66
2023/06/06 14:17:17;;;;;;;;;6.75;5.75;;;;;;;;4958610;28;45373;-67
2023/06/06 14:19:50;;;;;;;;;6.75;6.75;;;;;;;;4959023;28;45420;-67